sensor_id;sensor_type;location;lat;lon;timestamp;temperature;humidity
27747;DHT22;15138;51.012;4.692;2023-05-16T00:01:41;10.50;99.90
27747;DHT22;15138;51.012;4.692;2023-05-16T00:04:09;10.50;99.90
27747;DHT22;15138;51.012;4.692;2023-05-16T00:06:37;10.50;99.90
27747;DHT22;15138;51.012;4.692;2023-05-16T00:09:07;10.50;99.90
27747;DHT22;15138;51.012;4.692;2023-05-16T00:11:35;10.50;99.90
27747;DHT22;15138;51.012;4.692;2023-05-16T00:14:03;10.40;99.90
27747;DHT22;15138;51.012;4.692;2023-05-16T00:16:31;10.40;99.90
27747;DHT22;15138;51.012;4.692;2023-05-16T00:18:59;10.30;99.90
27747;DHT22;15138;51.012;4.692;2023-05-16T00:21:28;10.30;99.90
27747;DHT22;15138;51.012;4.692;2023-05-16T00:23:56;10.20;1.00
27747;DHT22;15138;51.012;4.692;2023-05-16T00:26:26;10.20;1.00
27747;DHT22;15138;51.012;4.692;2023-05-16T00:28:54;10.10;1.00
27747;DHT22;15138;51.012;4.692;2023-05-16T00:31:22;10.10;1.00
27747;DHT22;15138;51.012;4.692;2023-05-16T00:33:50;10.10;1.00
27747;DHT22;15138;51.012;4.692;2023-05-16T00:36:18;10.00;1.00
27747;DHT22;15138;51.012;4.692;2023-05-16T00:38:49;10.00;1.00
27747;DHT22;15138;51.012;4.692;2023-05-16T00:41:17;10.00;1.00
27747;DHT22;15138;51.012;4.692;2023-05-16T00:43:47;9.90;1.00
27747;DHT22;15138;51.012;4.692;2023-05-16T00:46:15;9.90;1.00
27747;DHT22;15138;51.012;4.692;2023-05-16T00:48:43;9.90;1.00
27747;DHT22;15138;51.012;4.692;2023-05-16T00:51:11;9.90;1.00
27747;DHT22;15138;51.012;4.692;2023-05-16T00:53:40;9.90;1.00
27747;DHT22;15138;51.012;4.692;2023-05-16T00:56:08;9.80;1.00
27747;DHT22;15138;51.012;4.692;2023-05-16T00:58:37;9.80;1.00
27747;DHT22;15138;51.012;4.692;2023-05-16T01:01:06;9.70;1.00
27747;DHT22;15138;51.012;4.692;2023-05-16T01:03:34;9.80;1.00
27747;DHT22;15138;51.012;4.692;2023-05-16T01:06:03;9.70;1.00
27747;DHT22;15138;51.012;4.692;2023-05-16T01:08:32;9.70;1.00
27747;DHT22;15138;51.012;4.692;2023-05-16T01:11:05;9.70;1.00
27747;DHT22;15138;51.012;4.692;2023-05-16T01:13:42;9.60;1.00
27747;DHT22;15138;51.012;4.692;2023-05-16T01:16:21;9.60;1.00
27747;DHT22;15138;51.012;4.692;2023-05-16T01:18:56;9.60;1.00
27747;DHT22;15138;51.012;4.692;2023-05-16T01:21:37;9.60;1.00
27747;DHT22;15138;51.012;4.692;2023-05-16T01:24:13;9.60;1.00
27747;DHT22;15138;51.012;4.692;2023-05-16T01:26:44;9.60;1.00
27747;DHT22;15138;51.012;4.692;2023-05-16T01:29:13;9.50;1.00
27747;DHT22;15138;51.012;4.692;2023-05-16T01:31:42;9.50;1.00
27747;DHT22;15138;51.012;4.692;2023-05-16T01:34:10;9.50;1.00
27747;DHT22;15138;51.012;4.692;2023-05-16T01:36:43;9.50;1.00
27747;DHT22;15138;51.012;4.692;2023-05-16T01:39:19;9.40;1.00
27747;DHT22;15138;51.012;4.692;2023-05-16T01:41:56;9.40;1.00
27747;DHT22;15138;51.012;4.692;2023-05-16T01:44:31;9.30;1.00
27747;DHT22;15138;51.012;4.692;2023-05-16T01:47:02;9.30;1.00
27747;DHT22;15138;51.012;4.692;2023-05-16T01:49:35;9.30;1.00
27747;DHT22;15138;51.012;4.692;2023-05-16T01:52:08;9.30;1.00
27747;DHT22;15138;51.012;4.692;2023-05-16T01:54:43;9.30;1.00
27747;DHT22;15138;51.012;4.692;2023-05-16T01:57:13;9.20;1.00
27747;DHT22;15138;51.012;4.692;2023-05-16T01:59:43;9.20;1.00
27747;DHT22;15138;51.012;4.692;2023-05-16T02:02:12;9.20;1.00
27747;DHT22;15138;51.012;4.692;2023-05-16T02:04:40;9.10;1.00
27747;DHT22;15138;51.012;4.692;2023-05-16T02:07:08;9.10;1.00
27747;DHT22;15138;51.012;4.692;2023-05-16T02:09:37;9.10;1.00
27747;DHT22;15138;51.012;4.692;2023-05-16T02:12:05;9.10;1.00
27747;DHT22;15138;51.012;4.692;2023-05-16T02:14:35;9.10;1.00
27747;DHT22;15138;51.012;4.692;2023-05-16T02:17:03;9.00;1.00
27747;DHT22;15138;51.012;4.692;2023-05-16T02:19:31;9.00;1.00
27747;DHT22;15138;51.012;4.692;2023-05-16T02:22:00;9.00;1.00
27747;DHT22;15138;51.012;4.692;2023-05-16T02:24:28;9.00;1.00
27747;DHT22;15138;51.012;4.692;2023-05-16T02:26:56;8.90;1.00
27747;DHT22;15138;51.012;4.692;2023-05-16T02:29:24;8.90;1.00
27747;DHT22;15138;51.012;4.692;2023-05-16T02:31:53;8.90;1.00
27747;DHT22;15138;51.012;4.692;2023-05-16T02:34:21;8.90;1.00
27747;DHT22;15138;51.012;4.692;2023-05-16T02:36:49;8.80;1.00
27747;DHT22;15138;51.012;4.692;2023-05-16T02:39:17;8.80;1.00
27747;DHT22;15138;51.012;4.692;2023-05-16T02:41:45;8.80;1.00
27747;DHT22;15138;51.012;4.692;2023-05-16T02:44:14;8.80;1.00
27747;DHT22;15138;51.012;4.692;2023-05-16T02:46:42;8.70;1.00
27747;DHT22;15138;51.012;4.692;2023-05-16T02:49:11;8.70;1.00
27747;DHT22;15138;51.012;4.692;2023-05-16T02:51:39;8.70;1.00
27747;DHT22;15138;51.012;4.692;2023-05-16T02:54:07;8.70;1.00
27747;DHT22;15138;51.012;4.692;2023-05-16T02:56:36;8.70;1.00
27747;DHT22;15138;51.012;4.692;2023-05-16T02:59:04;8.70;1.00
27747;DHT22;15138;51.012;4.692;2023-05-16T03:01:32;8.70;1.00
27747;DHT22;15138;51.012;4.692;2023-05-16T03:04:00;8.70;1.00
27747;DHT22;15138;51.012;4.692;2023-05-16T03:06:30;8.70;1.00
27747;DHT22;15138;51.012;4.692;2023-05-16T03:08:58;8.60;1.00
27747;DHT22;15138;51.012;4.692;2023-05-16T03:11:26;8.60;1.00
27747;DHT22;15138;51.012;4.692;2023-05-16T03:13:55;8.60;1.00
27747;DHT22;15138;51.012;4.692;2023-05-16T03:16:27;8.60;1.00
27747;DHT22;15138;51.012;4.692;2023-05-16T03:18:56;8.60;1.00
27747;DHT22;15138;51.012;4.692;2023-05-16T03:21:24;8.60;1.00
27747;DHT22;15138;51.012;4.692;2023-05-16T03:23:54;8.60;1.00
27747;DHT22;15138;51.012;4.692;2023-05-16T03:26:22;8.60;1.00
27747;DHT22;15138;51.012;4.692;2023-05-16T03:28:51;8.60;1.00
27747;DHT22;15138;51.012;4.692;2023-05-16T03:31:19;8.50;1.00
27747;DHT22;15138;51.012;4.692;2023-05-16T03:33:47;8.50;1.00
27747;DHT22;15138;51.012;4.692;2023-05-16T03:36:16;8.50;1.00
27747;DHT22;15138;51.012;4.692;2023-05-16T03:38:44;8.50;99.90
27747;DHT22;15138;51.012;4.692;2023-05-16T03:41:13;8.50;99.90
27747;DHT22;15138;51.012;4.692;2023-05-16T03:43:41;8.40;99.90
27747;DHT22;15138;51.012;4.692;2023-05-16T03:46:10;8.40;99.90
27747;DHT22;15138;51.012;4.692;2023-05-16T03:48:38;8.40;99.90
27747;DHT22;15138;51.012;4.692;2023-05-16T03:51:06;8.40;99.90
27747;DHT22;15138;51.012;4.692;2023-05-16T03:53:34;8.40;99.90
27747;DHT22;15138;51.012;4.692;2023-05-16T03:56:02;8.30;99.90
27747;DHT22;15138;51.012;4.692;2023-05-16T03:58:32;8.30;99.90
27747;DHT22;15138;51.012;4.692;2023-05-16T04:01:00;8.30;99.90
27747;DHT22;15138;51.012;4.692;2023-05-16T04:03:28;8.30;99.90
27747;DHT22;15138;51.012;4.692;2023-05-16T04:05:57;8.30;99.90
27747;DHT22;15138;51.012;4.692;2023-05-16T04:08:25;8.30;99.90
27747;DHT22;15138;51.012;4.692;2023-05-16T04:10:53;8.30;99.90
27747;DHT22;15138;51.012;4.692;2023-05-16T04:13:21;8.20;99.90
27747;DHT22;15138;51.012;4.692;2023-05-16T04:15:51;8.20;99.90
27747;DHT22;15138;51.012;4.692;2023-05-16T04:18:19;8.20;99.90
27747;DHT22;15138;51.012;4.692;2023-05-16T04:20:47;8.20;99.90
27747;DHT22;15138;51.012;4.692;2023-05-16T04:23:15;8.20;99.90
27747;DHT22;15138;51.012;4.692;2023-05-16T04:25:43;8.20;99.90
27747;DHT22;15138;51.012;4.692;2023-05-16T04:28:12;8.10;99.90
27747;DHT22;15138;51.012;4.692;2023-05-16T04:30:40;8.10;99.90
27747;DHT22;15138;51.012;4.692;2023-05-16T04:33:09;8.10;99.90
27747;DHT22;15138;51.012;4.692;2023-05-16T04:35:38;8.10;99.90
27747;DHT22;15138;51.012;4.692;2023-05-16T04:38:06;8.10;99.90
27747;DHT22;15138;51.012;4.692;2023-05-16T04:40:34;8.10;99.90
27747;DHT22;15138;51.012;4.692;2023-05-16T04:43:03;8.10;99.90
27747;DHT22;15138;51.012;4.692;2023-05-16T04:45:32;8.10;99.90
27747;DHT22;15138;51.012;4.692;2023-05-16T04:48:03;8.10;99.90
27747;DHT22;15138;51.012;4.692;2023-05-16T04:50:33;8.20;99.90
27747;DHT22;15138;51.012;4.692;2023-05-16T04:53:01;8.10;99.90
27747;DHT22;15138;51.012;4.692;2023-05-16T04:55:29;8.10;99.90
27747;DHT22;15138;51.012;4.692;2023-05-16T04:57:57;8.20;99.90
27747;DHT22;15138;51.012;4.692;2023-05-16T05:00:25;8.20;1.00
27747;DHT22;15138;51.012;4.692;2023-05-16T05:02:54;8.20;1.00
27747;DHT22;15138;51.012;4.692;2023-05-16T05:05:22;8.20;1.00
27747;DHT22;15138;51.012;4.692;2023-05-16T05:07:52;8.20;1.00
27747;DHT22;15138;51.012;4.692;2023-05-16T05:10:20;8.30;1.00
27747;DHT22;15138;51.012;4.692;2023-05-16T05:12:48;8.30;1.00
27747;DHT22;15138;51.012;4.692;2023-05-16T05:15:16;8.40;1.00
27747;DHT22;15138;51.012;4.692;2023-05-16T05:17:44;8.40;1.00
27747;DHT22;15138;51.012;4.692;2023-05-16T05:20:13;8.50;1.00
27747;DHT22;15138;51.012;4.692;2023-05-16T05:22:41;8.50;1.00
27747;DHT22;15138;51.012;4.692;2023-05-16T05:25:11;8.60;1.00
27747;DHT22;15138;51.012;4.692;2023-05-16T05:27:39;8.70;1.00
27747;DHT22;15138;51.012;4.692;2023-05-16T05:30:08;8.80;1.00
27747;DHT22;15138;51.012;4.692;2023-05-16T05:32:37;8.90;1.00
27747;DHT22;15138;51.012;4.692;2023-05-16T05:35:06;8.90;1.00
27747;DHT22;15138;51.012;4.692;2023-05-16T05:37:34;8.90;1.00
27747;DHT22;15138;51.012;4.692;2023-05-16T05:40:03;8.80;1.00
27747;DHT22;15138;51.012;4.692;2023-05-16T05:42:32;8.90;1.00
27747;DHT22;15138;51.012;4.692;2023-05-16T05:45:01;9.00;1.00
27747;DHT22;15138;51.012;4.692;2023-05-16T05:47:29;9.20;1.00
27747;DHT22;15138;51.012;4.692;2023-05-16T05:49:58;9.40;1.00
27747;DHT22;15138;51.012;4.692;2023-05-16T05:52:26;9.50;1.00
27747;DHT22;15138;51.012;4.692;2023-05-16T05:54:54;9.70;1.00
27747;DHT22;15138;51.012;4.692;2023-05-16T05:57:25;9.90;1.00
27747;DHT22;15138;51.012;4.692;2023-05-16T05:59:54;10.00;1.00
27747;DHT22;15138;51.012;4.692;2023-05-16T06:02:22;10.20;1.00
27747;DHT22;15138;51.012;4.692;2023-05-16T06:04:51;10.40;1.00
27747;DHT22;15138;51.012;4.692;2023-05-16T06:07:19;10.50;1.00
27747;DHT22;15138;51.012;4.692;2023-05-16T06:09:47;10.50;1.00
27747;DHT22;15138;51.012;4.692;2023-05-16T06:12:15;10.70;1.00
27747;DHT22;15138;51.012;4.692;2023-05-16T06:14:43;10.80;1.00
27747;DHT22;15138;51.012;4.692;2023-05-16T06:17:13;11.00;1.00
27747;DHT22;15138;51.012;4.692;2023-05-16T06:19:41;11.10;1.00
27747;DHT22;15138;51.012;4.692;2023-05-16T06:22:09;11.20;1.00
27747;DHT22;15138;51.012;4.692;2023-05-16T06:24:38;11.30;1.00
27747;DHT22;15138;51.012;4.692;2023-05-16T06:27:06;11.50;1.00
27747;DHT22;15138;51.012;4.692;2023-05-16T06:29:34;11.60;1.00
27747;DHT22;15138;51.012;4.692;2023-05-16T06:32:02;11.80;1.00
27747;DHT22;15138;51.012;4.692;2023-05-16T06:34:32;12.00;99.90
27747;DHT22;15138;51.012;4.692;2023-05-16T06:37:00;12.10;99.90
27747;DHT22;15138;51.012;4.692;2023-05-16T06:39:29;12.30;99.90
27747;DHT22;15138;51.012;4.692;2023-05-16T06:41:57;12.40;99.90
27747;DHT22;15138;51.012;4.692;2023-05-16T06:44:25;12.40;99.90
27747;DHT22;15138;51.012;4.692;2023-05-16T06:46:53;12.50;99.90
27747;DHT22;15138;51.012;4.692;2023-05-16T06:49:22;12.60;99.90
27747;DHT22;15138;51.012;4.692;2023-05-16T06:51:51;12.70;99.90
27747;DHT22;15138;51.012;4.692;2023-05-16T06:54:19;12.90;99.90
27747;DHT22;15138;51.012;4.692;2023-05-16T06:56:47;12.70;99.90
27747;DHT22;15138;51.012;4.692;2023-05-16T06:59:16;12.90;99.90
27747;DHT22;15138;51.012;4.692;2023-05-16T07:01:44;13.10;99.90
27747;DHT22;15138;51.012;4.692;2023-05-16T07:04:12;13.40;99.90
27747;DHT22;15138;51.012;4.692;2023-05-16T07:06:41;13.40;99.90
27747;DHT22;15138;51.012;4.692;2023-05-16T07:09:11;13.60;99.90
27747;DHT22;15138;51.012;4.692;2023-05-16T07:11:39;13.70;99.90
27747;DHT22;15138;51.012;4.692;2023-05-16T07:14:07;13.80;99.90
27747;DHT22;15138;51.012;4.692;2023-05-16T07:16:35;14.00;99.90
27747;DHT22;15138;51.012;4.692;2023-05-16T07:19:04;14.00;99.90
27747;DHT22;15138;51.012;4.692;2023-05-16T07:21:32;14.30;99.90
27747;DHT22;15138;51.012;4.692;2023-05-16T07:24:00;14.50;99.90
27747;DHT22;15138;51.012;4.692;2023-05-16T07:26:29;14.30;99.90
27747;DHT22;15138;51.012;4.692;2023-05-16T07:28:58;14.10;99.90
27747;DHT22;15138;51.012;4.692;2023-05-16T07:31:28;14.50;1.00
27747;DHT22;15138;51.012;4.692;2023-05-16T07:33:56;14.60;99.90
27747;DHT22;15138;51.012;4.692;2023-05-16T07:38:53;14.10;99.90
27747;DHT22;15138;51.012;4.692;2023-05-16T07:41:21;14.10;99.90
27747;DHT22;15138;51.012;4.692;2023-05-16T07:43:51;14.30;99.90
27747;DHT22;15138;51.012;4.692;2023-05-16T07:46:19;14.30;99.90
27747;DHT22;15138;51.012;4.692;2023-05-16T07:48:48;14.10;99.90
27747;DHT22;15138;51.012;4.692;2023-05-16T07:51:16;14.10;99.90
27747;DHT22;15138;51.012;4.692;2023-05-16T07:53:44;14.00;99.90
27747;DHT22;15138;51.012;4.692;2023-05-16T07:56:13;14.00;99.90
27747;DHT22;15138;51.012;4.692;2023-05-16T07:58:41;13.90;99.90
27747;DHT22;15138;51.012;4.692;2023-05-16T08:01:11;13.80;99.90
27747;DHT22;15138;51.012;4.692;2023-05-16T08:03:39;13.90;99.90
27747;DHT22;15138;51.012;4.692;2023-05-16T08:06:07;14.60;99.90
27747;DHT22;15138;51.012;4.692;2023-05-16T08:08:36;15.00;99.90
27747;DHT22;15138;51.012;4.692;2023-05-16T08:11:05;15.60;99.90
27747;DHT22;15138;51.012;4.692;2023-05-16T08:13:33;15.70;99.90
27747;DHT22;15138;51.012;4.692;2023-05-16T08:16:01;15.70;99.90
27747;DHT22;15138;51.012;4.692;2023-05-16T08:18:31;16.10;99.90
27747;DHT22;15138;51.012;4.692;2023-05-16T08:20:59;16.30;99.90
27747;DHT22;15138;51.012;4.692;2023-05-16T08:23:29;16.70;99.90
27747;DHT22;15138;51.012;4.692;2023-05-16T08:25:57;17.00;99.90
27747;DHT22;15138;51.012;4.692;2023-05-16T08:28:25;20.30;99.90
27747;DHT22;15138;51.012;4.692;2023-05-16T08:30:53;17.10;99.90
27747;DHT22;15138;51.012;4.692;2023-05-16T08:33:22;17.70;1.00
27747;DHT22;15138;51.012;4.692;2023-05-16T08:38:22;17.70;99.90
27747;DHT22;15138;51.012;4.692;2023-05-16T08:40:50;17.40;99.90
27747;DHT22;15138;51.012;4.692;2023-05-16T08:45:49;17.20;1.00
27747;DHT22;15138;51.012;4.692;2023-05-16T08:48:22;17.20;99.90
27747;DHT22;15138;51.012;4.692;2023-05-16T08:50:52;17.60;99.90
27747;DHT22;15138;51.012;4.692;2023-05-16T08:53:21;17.20;99.90
27747;DHT22;15138;51.012;4.692;2023-05-16T08:55:53;17.10;99.90
27747;DHT22;15138;51.012;4.692;2023-05-16T08:58:22;17.70;99.90
27747;DHT22;15138;51.012;4.692;2023-05-16T09:00:51;17.30;99.90
27747;DHT22;15138;51.012;4.692;2023-05-16T09:03:20;18.20;99.90
27747;DHT22;15138;51.012;4.692;2023-05-16T09:05:52;18.90;99.90
27747;DHT22;15138;51.012;4.692;2023-05-16T09:08:20;18.90;99.90
27747;DHT22;15138;51.012;4.692;2023-05-16T09:10:48;18.80;99.90
27747;DHT22;15138;51.012;4.692;2023-05-16T09:13:16;19.50;99.90
27747;DHT22;15138;51.012;4.692;2023-05-16T09:15:44;19.50;99.90
27747;DHT22;15138;51.012;4.692;2023-05-16T09:18:13;19.30;99.90
27747;DHT22;15138;51.012;4.692;2023-05-16T09:20:42;19.50;99.90
27747;DHT22;15138;51.012;4.692;2023-05-16T09:23:15;20.20;99.90
27747;DHT22;15138;51.012;4.692;2023-05-16T09:25:52;20.50;99.90
27747;DHT22;15138;51.012;4.692;2023-05-16T09:28:21;20.70;99.90
27747;DHT22;15138;51.012;4.692;2023-05-16T09:30:51;20.90;1.00
27747;DHT22;15138;51.012;4.692;2023-05-16T09:33:22;20.50;99.90
27747;DHT22;15138;51.012;4.692;2023-05-16T09:35:54;20.80;99.90
27747;DHT22;15138;51.012;4.692;2023-05-16T09:38:26;20.70;99.90
27747;DHT22;15138;51.012;4.692;2023-05-16T09:40:55;20.60;99.90
27747;DHT22;15138;51.012;4.692;2023-05-16T09:43:25;19.80;99.90
27747;DHT22;15138;51.012;4.692;2023-05-16T09:45:53;19.60;99.90
27747;DHT22;15138;51.012;4.692;2023-05-16T09:48:22;19.90;99.90
27747;DHT22;15138;51.012;4.692;2023-05-16T09:50:54;20.40;99.90
27747;DHT22;15138;51.012;4.692;2023-05-16T09:53:31;21.20;99.90
27747;DHT22;15138;51.012;4.692;2023-05-16T09:56:01;20.70;99.90
27747;DHT22;15138;51.012;4.692;2023-05-16T09:58:30;20.50;99.90
27747;DHT22;15138;51.012;4.692;2023-05-16T10:00:58;20.90;99.90
27747;DHT22;15138;51.012;4.692;2023-05-16T10:03:27;21.20;99.90
27747;DHT22;15138;51.012;4.692;2023-05-16T10:05:56;21.50;99.90
27747;DHT22;15138;51.012;4.692;2023-05-16T10:08:25;21.30;99.90
27747;DHT22;15138;51.012;4.692;2023-05-16T10:10:55;21.70;99.90
27747;DHT22;15138;51.012;4.692;2023-05-16T10:13:28;21.50;99.90
27747;DHT22;15138;51.012;4.692;2023-05-16T10:15:58;21.40;99.90
27747;DHT22;15138;51.012;4.692;2023-05-16T10:18:29;21.30;99.90
27747;DHT22;15138;51.012;4.692;2023-05-16T10:21:04;21.80;99.90
27747;DHT22;15138;51.012;4.692;2023-05-16T10:23:39;22.10;99.90
27747;DHT22;15138;51.012;4.692;2023-05-16T10:26:10;22.20;99.90
27747;DHT22;15138;51.012;4.692;2023-05-16T10:28:40;22.60;99.90
27747;DHT22;15138;51.012;4.692;2023-05-16T10:31:09;22.60;99.90
27747;DHT22;15138;51.012;4.692;2023-05-16T10:33:38;22.60;99.90
27747;DHT22;15138;51.012;4.692;2023-05-16T10:36:07;22.70;99.90
27747;DHT22;15138;51.012;4.692;2023-05-16T10:38:36;22.80;99.90
27747;DHT22;15138;51.012;4.692;2023-05-16T10:41:06;21.90;99.90
27747;DHT22;15138;51.012;4.692;2023-05-16T10:43:35;21.40;99.90
27747;DHT22;15138;51.012;4.692;2023-05-16T10:46:06;21.80;99.90
27747;DHT22;15138;51.012;4.692;2023-05-16T10:48:37;22.40;99.90
27747;DHT22;15138;51.012;4.692;2023-05-16T10:51:33;21.60;99.90
27747;DHT22;15138;51.012;4.692;2023-05-16T10:54:07;21.90;99.90
27747;DHT22;15138;51.012;4.692;2023-05-16T10:56:36;21.40;99.90
27747;DHT22;15138;51.012;4.692;2023-05-16T10:59:21;21.40;99.90
27747;DHT22;15138;51.012;4.692;2023-05-16T11:01:54;21.70;99.90
27747;DHT22;15138;51.012;4.692;2023-05-16T11:04:27;22.40;99.90
27747;DHT22;15138;51.012;4.692;2023-05-16T11:07:11;22.40;99.90
27747;DHT22;15138;51.012;4.692;2023-05-16T11:09:43;22.90;99.90
27747;DHT22;15138;51.012;4.692;2023-05-16T11:12:12;22.80;99.90
27747;DHT22;15138;51.012;4.692;2023-05-16T11:14:42;21.50;99.90
27747;DHT22;15138;51.012;4.692;2023-05-16T11:17:15;21.00;99.90
27747;DHT22;15138;51.012;4.692;2023-05-16T11:19:44;21.00;99.90
27747;DHT22;15138;51.012;4.692;2023-05-16T11:22:24;22.10;99.90
27747;DHT22;15138;51.012;4.692;2023-05-16T11:24:56;22.30;99.90
27747;DHT22;15138;51.012;4.692;2023-05-16T11:27:26;22.30;99.90
27747;DHT22;15138;51.012;4.692;2023-05-16T11:29:59;22.50;99.90
27747;DHT22;15138;51.012;4.692;2023-05-16T11:32:30;23.30;99.90
27747;DHT22;15138;51.012;4.692;2023-05-16T11:35:00;23.10;99.90
27747;DHT22;15138;51.012;4.692;2023-05-16T11:37:29;23.30;99.90
27747;DHT22;15138;51.012;4.692;2023-05-16T11:39:58;23.90;99.90
27747;DHT22;15138;51.012;4.692;2023-05-16T11:42:29;22.80;99.90
27747;DHT22;15138;51.012;4.692;2023-05-16T11:45:05;22.70;99.90
27747;DHT22;15138;51.012;4.692;2023-05-16T11:47:35;22.80;99.90
27747;DHT22;15138;51.012;4.692;2023-05-16T11:50:05;22.70;99.90
27747;DHT22;15138;51.012;4.692;2023-05-16T11:52:36;22.10;99.90
27747;DHT22;15138;51.012;4.692;2023-05-16T11:55:05;21.80;99.90
27747;DHT22;15138;51.012;4.692;2023-05-16T11:57:33;22.00;99.90
27747;DHT22;15138;51.012;4.692;2023-05-16T12:00:02;22.80;99.90
27747;DHT22;15138;51.012;4.692;2023-05-16T12:02:35;22.40;99.90
27747;DHT22;15138;51.012;4.692;2023-05-16T12:05:07;21.70;99.90
27747;DHT22;15138;51.012;4.692;2023-05-16T12:07:36;21.90;99.90
27747;DHT22;15138;51.012;4.692;2023-05-16T12:10:05;21.80;99.90
27747;DHT22;15138;51.012;4.692;2023-05-16T12:12:35;22.50;99.90
27747;DHT22;15138;51.012;4.692;2023-05-16T12:15:05;21.90;99.90
27747;DHT22;15138;51.012;4.692;2023-05-16T12:17:35;22.00;99.90
27747;DHT22;15138;51.012;4.692;2023-05-16T12:20:05;22.20;99.90
27747;DHT22;15138;51.012;4.692;2023-05-16T12:22:38;22.30;99.90
27747;DHT22;15138;51.012;4.692;2023-05-16T12:25:26;22.00;94.00
27747;DHT22;15138;51.012;4.692;2023-05-16T12:27:57;21.40;93.80
27747;DHT22;15138;51.012;4.692;2023-05-16T12:30:26;21.60;99.60
27747;DHT22;15138;51.012;4.692;2023-05-16T12:32:57;21.60;98.60
27747;DHT22;15138;51.012;4.692;2023-05-16T12:35:29;21.30;93.90
27747;DHT22;15138;51.012;4.692;2023-05-16T12:37:59;21.10;95.20
27747;DHT22;15138;51.012;4.692;2023-05-16T12:40:28;20.90;91.10
27747;DHT22;15138;51.012;4.692;2023-05-16T12:42:56;20.50;91.30
27747;DHT22;15138;51.012;4.692;2023-05-16T12:45:27;20.70;94.40
27747;DHT22;15138;51.012;4.692;2023-05-16T12:48:00;20.80;94.50
27747;DHT22;15138;51.012;4.692;2023-05-16T12:50:32;20.90;95.00
27747;DHT22;15138;51.012;4.692;2023-05-16T12:53:00;21.20;99.90
27747;DHT22;15138;51.012;4.692;2023-05-16T12:55:28;21.80;95.60
27747;DHT22;15138;51.012;4.692;2023-05-16T12:57:57;22.40;96.10
27747;DHT22;15138;51.012;4.692;2023-05-16T13:00:27;21.70;92.10
27747;DHT22;15138;51.012;4.692;2023-05-16T13:02:58;21.10;90.70
27747;DHT22;15138;51.012;4.692;2023-05-16T13:05:27;21.10;93.60
27747;DHT22;15138;51.012;4.692;2023-05-16T13:07:55;20.70;86.80
27747;DHT22;15138;51.012;4.692;2023-05-16T13:10:24;21.00;92.90
27747;DHT22;15138;51.012;4.692;2023-05-16T13:12:53;21.00;90.20
27747;DHT22;15138;51.012;4.692;2023-05-16T13:15:24;20.90;84.10
27747;DHT22;15138;51.012;4.692;2023-05-16T13:17:53;20.70;90.50
27747;DHT22;15138;51.012;4.692;2023-05-16T13:20:23;20.90;89.00
27747;DHT22;15138;51.012;4.692;2023-05-16T13:22:51;20.90;87.70
27747;DHT22;15138;51.012;4.692;2023-05-16T13:25:19;21.10;88.00
27747;DHT22;15138;51.012;4.692;2023-05-16T13:27:48;21.00;88.80
27747;DHT22;15138;51.012;4.692;2023-05-16T13:30:16;21.00;88.20
27747;DHT22;15138;51.012;4.692;2023-05-16T13:32:44;20.90;90.20
27747;DHT22;15138;51.012;4.692;2023-05-16T13:35:12;21.00;90.70
27747;DHT22;15138;51.012;4.692;2023-05-16T13:37:43;20.80;90.10
27747;DHT22;15138;51.012;4.692;2023-05-16T13:40:11;21.40;92.50
27747;DHT22;15138;51.012;4.692;2023-05-16T13:42:40;21.80;93.10
27747;DHT22;15138;51.012;4.692;2023-05-16T13:45:08;22.10;53.60
27747;DHT22;15138;51.012;4.692;2023-05-16T13:50:06;21.50;69.60
27747;DHT22;15138;51.012;4.692;2023-05-16T13:52:36;21.30;92.60
27747;DHT22;15138;51.012;4.692;2023-05-16T13:55:06;21.20;91.20
27747;DHT22;15138;51.012;4.692;2023-05-16T13:57:35;21.80;90.60
27747;DHT22;15138;51.012;4.692;2023-05-16T14:00:04;21.20;88.50
27747;DHT22;15138;51.012;4.692;2023-05-16T14:02:58;21.10;94.20
27747;DHT22;15138;51.012;4.692;2023-05-16T14:05:26;21.00;92.20
27747;DHT22;15138;51.012;4.692;2023-05-16T14:07:54;20.90;91.00
27747;DHT22;15138;51.012;4.692;2023-05-16T14:10:24;21.10;91.30
27747;DHT22;15138;51.012;4.692;2023-05-16T14:12:53;21.10;91.40
27747;DHT22;15138;51.012;4.692;2023-05-16T14:15:21;20.80;88.30
27747;DHT22;15138;51.012;4.692;2023-05-16T14:17:49;20.30;84.50
27747;DHT22;15138;51.012;4.692;2023-05-16T14:20:18;20.40;89.50
27747;DHT22;15138;51.012;4.692;2023-05-16T14:22:46;20.40;90.50
27747;DHT22;15138;51.012;4.692;2023-05-16T14:25:14;20.80;93.40
27747;DHT22;15138;51.012;4.692;2023-05-16T14:27:44;21.70;99.90
27747;DHT22;15138;51.012;4.692;2023-05-16T14:30:13;21.40;90.80
27747;DHT22;15138;51.012;4.692;2023-05-16T14:32:41;20.70;93.00
27747;DHT22;15138;51.012;4.692;2023-05-16T14:35:09;20.30;90.40
27747;DHT22;15138;51.012;4.692;2023-05-16T14:37:37;20.10;84.70
27747;DHT22;15138;51.012;4.692;2023-05-16T14:40:06;19.90;88.90
27747;DHT22;15138;51.012;4.692;2023-05-16T14:42:36;20.00;91.00
27747;DHT22;15138;51.012;4.692;2023-05-16T14:45:06;19.70;85.40
27747;DHT22;15138;51.012;4.692;2023-05-16T14:47:35;19.80;90.00
27747;DHT22;15138;51.012;4.692;2023-05-16T14:50:04;20.00;90.70
27747;DHT22;15138;51.012;4.692;2023-05-16T14:52:32;20.40;90.00
27747;DHT22;15138;51.012;4.692;2023-05-16T14:55:02;20.30;89.10
27747;DHT22;15138;51.012;4.692;2023-05-16T14:57:30;20.30;87.50
27747;DHT22;15138;51.012;4.692;2023-05-16T14:59:58;20.40;89.90
27747;DHT22;15138;51.012;4.692;2023-05-16T15:02:28;20.40;89.40
27747;DHT22;15138;51.012;4.692;2023-05-16T15:04:56;20.60;90.40
27747;DHT22;15138;51.012;4.692;2023-05-16T15:07:25;21.00;91.10
27747;DHT22;15138;51.012;4.692;2023-05-16T15:09:53;20.90;91.10
27747;DHT22;15138;51.012;4.692;2023-05-16T15:12:23;20.70;90.80
27747;DHT22;15138;51.012;4.692;2023-05-16T15:14:51;20.60;90.10
27747;DHT22;15138;51.012;4.692;2023-05-16T15:17:20;20.40;86.00
27747;DHT22;15138;51.012;4.692;2023-05-16T15:19:49;20.40;90.00
27747;DHT22;15138;51.012;4.692;2023-05-16T15:22:20;21.10;90.80
27747;DHT22;15138;51.012;4.692;2023-05-16T15:24:48;21.20;87.10
27747;DHT22;15138;51.012;4.692;2023-05-16T15:27:16;20.90;95.80
27747;DHT22;15138;51.012;4.692;2023-05-16T15:29:44;20.20;79.90
27747;DHT22;15138;51.012;4.692;2023-05-16T15:32:12;19.60;75.00
27747;DHT22;15138;51.012;4.692;2023-05-16T15:34:44;19.60;80.30
27747;DHT22;15138;51.012;4.692;2023-05-16T15:37:14;19.40;79.20
27747;DHT22;15138;51.012;4.692;2023-05-16T15:39:42;19.40;80.80
27747;DHT22;15138;51.012;4.692;2023-05-16T15:42:10;19.40;76.50
27747;DHT22;15138;51.012;4.692;2023-05-16T15:44:38;19.60;93.40
27747;DHT22;15138;51.012;4.692;2023-05-16T15:49:36;20.50;99.90
27747;DHT22;15138;51.012;4.692;2023-05-16T15:52:05;20.20;80.60
27747;DHT22;15138;51.012;4.692;2023-05-16T15:54:34;19.80;75.10
27747;DHT22;15138;51.012;4.692;2023-05-16T15:57:03;19.70;99.90
27747;DHT22;15138;51.012;4.692;2023-05-16T15:59:31;19.80;99.90
27747;DHT22;15138;51.012;4.692;2023-05-16T16:01:59;20.00;99.90
27747;DHT22;15138;51.012;4.692;2023-05-16T16:04:31;20.00;99.90
27747;DHT22;15138;51.012;4.692;2023-05-16T16:06:59;19.50;99.90